Time;durP1;ratioP1;P1;durP2;ratioP2;P2;SDS_P1;SDS_P2;PMS_P1;PMS_P2;Temp;Humidity;BMP_temperature;BMP_pressure;BME280_temperature;BME280_humidity;BME280_pressure;Samples;Min_cycle;Max_cycle;Signal;HPM_P1;HPM_P2
2023/09/13 07:08:53;;;;;;;16.30;13.73;;;;;;;;;;13059634;22;20007;-87
2023/09/13 07:14:01;;;;;;;17.20;14.77;;;;;;;;;;12784041;23;20385;-89
2023/09/13 07:19:04;;;;;;;20.92;16.60;;;;;;;;;;12784683;23;20001;-86
2023/09/13 07:29:47;;;;;;;19.38;15.20;;;;;;;;;;12812719;23;20396;-84
2023/09/13 07:34:49;;;;;;;18.77;14.60;;;;;;;;;;12792646;23;20012;-85
2023/09/13 07:39:51;;;;;;;16.60;13.82;;;;;;;;;;12818389;23;20362;-83
2023/09/13 07:44:52;;;;;;;15.88;13.13;;;;;;;;;;12794517;23;20012;-84
2023/09/13 07:49:55;;;;;;;17.73;13.23;;;;;;;;;;12793713;23;20013;-86
2023/09/13 07:55:02;;;;;;;12.93;11.20;;;;;;;;;;12788867;23;20015;-85
2023/09/13 08:00:06;;;;;;;17.13;14.98;;;;;;;;;;12793041;23;20009;-84
2023/09/13 08:05:07;;;;;;;14.90;13.40;;;;;;;;;;12820922;23;20001;-85
2023/09/13 08:10:08;;;;;;;17.00;14.82;;;;;;;;;;12796997;23;20051;-83
2023/09/13 08:15:09;;;;;;;26.85;23.17;;;;;;;;;;12790455;23;20012;-84
2023/09/13 08:20:11;;;;;;;15.95;13.55;;;;;;;;;;12819567;23;20376;-84
2023/09/13 08:25:12;;;;;;;22.98;18.40;;;;;;;;;;12791619;23;20005;-84
2023/09/13 08:30:13;;;;;;;19.48;15.48;;;;;;;;;;12790763;23;20032;-84
2023/09/13 08:35:14;;;;;;;16.83;13.60;;;;;;;;;;12790633;23;20005;-84
2023/09/13 08:40:15;;;;;;;16.17;14.20;;;;;;;;;;12792238;23;20005;-84
2023/09/13 08:45:16;;;;;;;18.15;16.25;;;;;;;;;;12792030;23;20016;-84
2023/09/13 08:50:23;;;;;;;21.45;15.88;;;;;;;;;;12833768;23;20008;-84
2023/09/13 08:55:24;;;;;;;16.92;14.68;;;;;;;;;;12813167;23;20001;-84
2023/09/13 09:00:27;;;;;;;17.70;15.02;;;;;;;;;;12799133;23;20008;-84
2023/09/13 09:05:28;;;;;;;18.42;15.68;;;;;;;;;;12792689;23;20000;-83
2023/09/13 09:10:29;;;;;;;18.95;16.42;;;;;;;;;;12786628;23;20017;-83
2023/09/13 09:15:32;;;;;;;18.10;15.77;;;;;;;;;;12784579;23;20078;-83
2023/09/13 09:20:34;;;;;;;23.95;20.15;;;;;;;;;;12782470;23;20346;-83
2023/09/13 09:25:39;;;;;;;15.93;13.73;;;;;;;;;;12783772;23;20032;-83
2023/09/13 09:30:40;;;;;;;20.00;17.90;;;;;;;;;;12792410;23;20032;-84
2023/09/13 09:35:52;;;;;;;17.10;15.27;;;;;;;;;;12797309;23;20021;-84
2023/09/13 09:41:06;;;;;;;12.35;11.05;;;;;;;;;;12798910;23;20411;-85
2023/09/13 09:46:07;;;;;;;12.43;10.90;;;;;;;;;;12790038;23;20332;-83
2023/09/13 09:51:09;;;;;;;9.15;7.90;;;;;;;;;;12791897;23;20021;-84
2023/09/13 09:56:15;;;;;;;6.95;6.03;;;;;;;;;;12793413;23;20012;-85
2023/09/13 10:01:17;;;;;;;6.13;4.32;;;;;;;;;;12835014;23;19985;-83
2023/09/13 10:06:18;;;;;;;4.80;3.88;;;;;;;;;;12812316;23;20032;-84
2023/09/13 10:11:23;;;;;;;3.17;2.83;;;;;;;;;;12785682;23;20017;-83
2023/09/13 10:16:30;;;;;;;4.20;2.40;;;;;;;;;;12785857;23;20080;-83
2023/09/13 10:21:32;;;;;;;2.33;1.88;;;;;;;;;;12791593;23;20001;-83
2023/09/13 10:26:34;;;;;;;2.50;1.73;;;;;;;;;;12792263;23;20068;-83
2023/09/13 10:31:40;;;;;;;3.70;2.15;;;;;;;;;;12790638;23;20084;-82
2023/09/13 10:36:45;;;;;;;1.90;1.40;;;;;;;;;;12794499;23;20005;-84
2023/09/13 10:41:55;;;;;;;2.90;1.30;;;;;;;;;;12792563;23;20024;-83
2023/09/13 10:46:56;;;;;;;2.65;1.45;;;;;;;;;;12795276;23;20009;-85
2023/09/13 10:51:58;;;;;;;2.30;1.15;;;;;;;;;;12794724;23;20439;-85
2023/09/13 10:56:59;;;;;;;3.63;1.45;;;;;;;;;;12795564;23;20012;-85
2023/09/13 11:02:04;;;;;;;3.17;1.05;;;;;;;;;;12798782;23;20140;-86
2023/09/13 11:07:14;;;;;;;2.72;1.02;;;;;;;;;;12799777;23;20021;-86
2023/09/13 11:12:15;;;;;;;2.58;1.20;;;;;;;;;;12827735;23;20108;-85
2023/09/13 11:17:46;;;;;;;2.72;1.02;;;;;;;;;;12789839;23;20001;-86
2023/09/13 11:23:00;;;;;;;3.17;1.48;;;;;;;;;;12758402;23;20020;-86
2023/09/13 11:28:03;;;;;;;4.35;1.70;;;;;;;;;;12792005;23;20009;-86
2023/09/13 11:33:04;;;;;;;10.55;6.70;;;;;;;;;;12795914;23;20048;-86
2023/09/13 11:38:07;;;;;;;4.55;2.20;;;;;;;;;;12792991;23;20005;-86
2023/09/13 11:43:11;;;;;;;7.15;1.60;;;;;;;;;;12800677;23;20005;-84
2023/09/13 11:48:12;;;;;;;1.95;1.60;;;;;;;;;;12793794;23;20012;-86
2023/09/13 11:53:19;;;;;;;4.25;1.75;;;;;;;;;;12789653;23;20394;-86
2023/09/13 11:58:29;;;;;;;3.50;1.63;;;;;;;;;;12784249;23;19998;-86
2023/09/13 12:03:31;;;;;;;3.75;1.38;;;;;;;;;;12783270;23;20040;-86
2023/09/13 12:09:04;;;;;;;6.22;1.70;;;;;;;;;;12812305;23;20588;-90
2023/09/13 12:30:49;;;;;;;3.45;1.58;;;;;;;;;;12905794;23;20113;-87
2023/09/13 12:41:34;;;;;;;3.22;1.50;;;;;;;;;;12892581;22;20004;-87
2023/09/13 12:52:52;;;;;;;2.88;1.33;;;;;;;;;;12874788;23;20001;-86
2023/09/13 13:09:28;;;;;;;2.42;1.25;;;;;;;;;;12886481;23;20016;-87
2023/09/13 13:20:42;;;;;;;4.30;1.80;;;;;;;;;;12878505;23;20454;-88
2023/09/13 13:25:51;;;;;;;2.63;1.45;;;;;;;;;;12894686;23;20093;-89
2023/09/13 13:30:56;;;;;;;4.20;1.40;;;;;;;;;;12888476;23;20035;-88
2023/09/13 13:36:00;;;;;;;4.45;3.15;;;;;;;;;;12886454;23;20005;-89
2023/09/13 13:41:09;;;;;;;3.15;1.90;;;;;;;;;;12882041;23;20000;-89
2023/09/13 13:46:15;;;;;;;3.13;1.45;;;;;;;;;;12883785;23;20056;-87
2023/09/13 13:51:16;;;;;;;2.05;1.25;;;;;;;;;;12876207;23;20017;-88
2023/09/13 13:56:17;;;;;;;2.03;1.30;;;;;;;;;;12880604;22;20017;-89
2023/09/13 14:01:18;;;;;;;3.33;1.95;;;;;;;;;;12871658;23;20449;-89
2023/09/13 14:06:22;;;;;;;2.63;1.30;;;;;;;;;;12869280;23;20009;-89
2023/09/13 14:11:24;;;;;;;2.70;1.50;;;;;;;;;;12878131;23;20079;-90
2023/09/13 14:16:30;;;;;;;2.58;1.52;;;;;;;;;;12877030;23;20067;-88
2023/09/13 14:21:31;;;;;;;3.22;1.80;;;;;;;;;;12850978;23;20016;-89
2023/09/13 14:26:32;;;;;;;2.10;1.30;;;;;;;;;;12877558;23;20013;-92
2023/09/13 14:31:36;;;;;;;3.72;1.50;;;;;;;;;;12875282;23;20430;-90
2023/09/13 14:36:37;;;;;;;3.20;1.40;;;;;;;;;;12876199;23;20071;-91
2023/09/13 14:41:39;;;;;;;3.03;1.50;;;;;;;;;;12874074;23;20001;-91
2023/09/13 14:46:40;;;;;;;5.10;1.63;;;;;;;;;;12875838;23;20017;-91
2023/09/13 14:51:44;;;;;;;2.92;1.80;;;;;;;;;;12873579;23;20429;-92
2023/09/13 14:56:51;;;;;;;2.53;1.80;;;;;;;;;;12875024;23;20007;-90
2023/09/13 15:01:52;;;;;;;5.07;1.80;;;;;;;;;;12878738;23;20012;-92
2023/09/13 15:06:53;;;;;;;3.15;1.63;;;;;;;;;;12883197;23;20032;-93
2023/09/13 15:11:55;;;;;;;3.72;1.63;;;;;;;;;;12894242;23;20009;-92
2023/09/13 15:16:56;;;;;;;4.07;1.77;;;;;;;;;;12903309;23;19989;-92
2023/09/13 15:21:58;;;;;;;4.10;2.10;;;;;;;;;;12887193;23;20335;-93
2023/09/13 15:26:59;;;;;;;2.80;1.67;;;;;;;;;;12902429;22;20040;-90
2023/09/13 15:32:00;;;;;;;2.00;1.48;;;;;;;;;;12903024;22;20093;-89
2023/09/13 15:37:01;;;;;;;2.90;1.35;;;;;;;;;;12888519;23;20005;-89
2023/09/13 15:42:05;;;;;;;2.33;1.50;;;;;;;;;;12877956;23;20001;-91
2023/09/13 15:47:09;;;;;;;2.67;1.77;;;;;;;;;;12876044;23;21287;-90
2023/09/13 15:52:10;;;;;;;3.35;1.73;;;;;;;;;;12877874;23;19988;-90
2023/09/13 15:57:15;;;;;;;2.90;1.70;;;;;;;;;;12874165;23;20086;-89
2023/09/13 16:02:16;;;;;;;2.20;1.33;;;;;;;;;;12876329;23;20056;-90
2023/09/13 16:07:17;;;;;;;3.30;1.77;;;;;;;;;;12874700;23;19996;-88
2023/09/13 16:12:18;;;;;;;4.35;2.33;;;;;;;;;;12871619;23;20009;-89
2023/09/13 16:17:19;;;;;;;4.10;2.30;;;;;;;;;;12875462;23;20078;-90
2023/09/13 16:22:20;;;;;;;3.80;2.03;;;;;;;;;;12879147;22;19988;-84
2023/09/13 16:27:22;;;;;;;4.38;2.00;;;;;;;;;;12887943;22;20035;-86
2023/09/13 16:32:23;;;;;;;3.38;1.80;;;;;;;;;;12886632;23;20070;-88
2023/09/13 16:37:24;;;;;;;3.17;1.90;;;;;;;;;;12881698;23;20035;-88
2023/09/13 16:42:25;;;;;;;4.18;2.83;;;;;;;;;;12885263;23;20048;-87
2023/09/13 16:47:26;;;;;;;3.47;1.88;;;;;;;;;;12876972;23;20063;-87
2023/09/13 16:52:27;;;;;;;4.15;2.25;;;;;;;;;;12870814;23;20087;-88
2023/09/13 16:57:28;;;;;;;4.05;1.70;;;;;;;;;;12876532;23;20005;-88
2023/09/13 17:02:30;;;;;;;3.17;1.77;;;;;;;;;;12871280;23;20004;-87
2023/09/13 17:07:31;;;;;;;3.28;1.60;;;;;;;;;;12872621;23;20004;-88
2023/09/13 17:12:33;;;;;;;4.15;1.35;;;;;;;;;;12883206;23;20108;-87
2023/09/13 17:17:36;;;;;;;4.07;2.00;;;;;;;;;;12898987;22;20048;-88
2023/09/13 17:22:37;;;;;;;5.65;1.98;;;;;;;;;;12898361;22;20012;-88
2023/09/13 17:27:39;;;;;;;2.90;1.95;;;;;;;;;;12876191;23;20064;-87
2023/09/13 17:32:40;;;;;;;2.45;1.70;;;;;;;;;;12872858;23;20016;-87
2023/09/13 17:37:41;;;;;;;3.88;1.50;;;;;;;;;;12869771;23;20067;-88
2023/09/13 17:42:45;;;;;;;2.40;1.48;;;;;;;;;;12869966;23;20031;-87
2023/09/13 17:47:46;;;;;;;2.38;1.60;;;;;;;;;;12874448;23;20161;-88
2023/09/13 17:52:47;;;;;;;3.97;2.45;;;;;;;;;;12872587;23;20001;-88
2023/09/13 17:57:50;;;;;;;3.58;1.58;;;;;;;;;;12869708;23;20001;-88
2023/09/13 18:02:51;;;;;;;2.58;1.50;;;;;;;;;;12872382;23;20449;-88
